Whites Creek, TN (37189)

6:40 AM CST on November 24, 2014 (GMT -0600)
Bates Nursery | Change Station
CLOSE
Current Station
Personal Weather Station
Location: Nashville, TN
Elevation: 459 ft
Nearby Weather Stations
Active Advisory: Wind Advisory

Elev 459 ft 36.25 °N, 86.82 °W | Updated 12 seconds ago

Partly Cloudy
Partly Cloudy
61.2 °F
Feels Like 61.2 °F
N
4.3
Wind Variable Wind from WNW
Gusts 10.3 mph

Today
High -- | Low -- °F
--% Chance of Precip.
Yesterday
High -- | Low -- °F
Precip. -- in
6:33 AM 4:34 PM
Waxing Crescent, 5% visible
Pressure 29.53 in
Visibility 10.0 miles
Clouds Few 3000 ft
Scattered Clouds 4000 ft
Dew Point 51 °F
Humidity 69%
Rainfall 0.00 in
Snow Depth Not available.
UV 0 out of 12
Pollen 1.90 out of 12
Air Quality Not available.
Flu Activity Not available.
METAR KBNA 241153Z 23013G23KT 10SM FEW030 SCT040 17/11 A2953 RMK AO2 PK WND 20029/1137 SLP998 70052 T01670111 10172 20161 53020 $

More Conditions Fewer Conditions

Pressure 29.53 in
Visibility 10.0 miles
Clouds Few 3000 ft
Scattered Clouds 4000 ft
Dew Point 51 °F
Humidity 69%
Rainfall 0.00 in
Snow Depth Not available.
UV 0 out of 12
Pollen 1.90 out of 12
Air Quality Not available.
Flu Activity Not available.
METAR KBNA 241153Z 23013G23KT 10SM FEW030 SCT040 17/11 A2953 RMK AO2 PK WND 20029/1137 SLP998 70052 T01670111 10172 20161 53020 $

More Conditions Fewer Conditions

10-Day Weather Forecast

Almanac

Astronomy

Nov. 24, 2014 Rise Set
Actual Time
Civil Twilight
Nautical Twilight
Astronomical Twilight
Moon
Length of Visible Light
Length of Day
Tomorrow will be .
, % of the Moon is Illuminated

Today's Extremes

State Highs State Lows

Community

WunderPhotos

Upload Photos

1,773,320 photos uploaded!

WunderBlogs® & News

Nearby

Air Quality

  Air Quality AQ Index Pollutant
Not available.

Snow Depth

Station Depth Elevation

Earthquake Activity

City Distance Mag. Time & Date
Minimum magnitude displayed is 2.5.

Coastal Water Temperatures

Place Temperature

Nearby Weather Stations